Time;durP1;ratioP1;P1;durP2;ratioP2;P2;SDS_P1;SDS_P2;PMS_P1;PMS_P2;Temp;Humidity;BMP_temperature;BMP_pressure;BME280_temperature;BME280_humidity;BME280_pressure;Samples;Min_cycle;Max_cycle;Signal;HPM_P1;HPM_P2
2023/04/30 00:00:06;;;;;;;35.42;19.95;;;;;;;;;;5030473;28;20033;-72
2023/04/30 00:02:32;;;;;;;33.17;19.17;;;;;;;;;;5065697;28;20029;-73
2023/04/30 00:04:57;;;;;;;31.15;18.10;;;;;;;;;;5034648;28;20099;-73
2023/04/30 00:07:22;;;;;;;35.75;18.35;;;;;;;;;;5030973;28;20030;-72
2023/04/30 00:09:49;;;;;;;34.53;18.85;;;;;;;;;;5057134;28;20040;-72
2023/04/30 00:12:14;;;;;;;28.05;16.50;;;;;;;;;;5024169;28;20057;-73
2023/04/30 00:14:40;;;;;;;33.55;16.83;;;;;;;;;;5025515;28;20520;-73
2023/04/30 00:17:05;;;;;;;26.67;16.13;;;;;;;;;;5026388;28;20029;-72
2023/04/30 00:19:30;;;;;;;29.38;16.40;;;;;;;;;;5058016;28;20033;-72
2023/04/30 00:21:55;;;;;;;26.35;17.58;;;;;;;;;;5023018;28;20113;-72
2023/04/30 00:24:21;;;;;;;31.33;16.98;;;;;;;;;;5021541;28;20566;-72
2023/04/30 00:26:46;;;;;;;30.98;16.92;;;;;;;;;;5024361;28;20490;-71
2023/04/30 00:29:14;;;;;;;31.10;17.02;;;;;;;;;;5058396;28;20063;-72
2023/04/30 00:31:39;;;;;;;26.50;16.35;;;;;;;;;;5058123;28;20108;-73
2023/04/30 00:34:05;;;;;;;27.02;16.83;;;;;;;;;;5024759;28;20029;-73
2023/04/30 00:36:30;;;;;;;33.70;18.95;;;;;;;;;;5054789;28;20033;-72
2023/04/30 00:38:56;;;;;;;35.35;18.75;;;;;;;;;;5030553;28;20029;-72
2023/04/30 00:41:21;;;;;;;35.17;19.80;;;;;;;;;;5024044;28;20497;-72
2023/04/30 00:43:46;;;;;;;37.95;20.02;;;;;;;;;;5054433;28;20033;-73
2023/04/30 00:46:12;;;;;;;33.67;19.23;;;;;;;;;;5021216;28;20038;-71
2023/04/30 00:48:37;;;;;;;36.60;20.63;;;;;;;;;;5053433;28;20033;-72
2023/04/30 00:51:02;;;;;;;37.03;22.42;;;;;;;;;;5053205;28;20052;-73
2023/04/30 00:53:30;;;;;;;32.03;20.38;;;;;;;;;;5056342;28;20052;-72
2023/04/30 00:55:55;;;;;;;33.67;19.48;;;;;;;;;;5023836;28;20037;-72
2023/04/30 00:58:21;;;;;;;32.08;19.65;;;;;;;;;;5056038;28;20095;-72
2023/04/30 01:00:46;;;;;;;34.60;19.38;;;;;;;;;;5026328;28;20045;-72
2023/04/30 01:03:15;;;;;;;29.80;19.45;;;;;;;;;;5028177;28;20034;-72
2023/04/30 01:05:42;;;;;;;30.40;18.88;;;;;;;;;;5021624;28;20033;-72
2023/04/30 01:08:10;;;;;;;34.22;20.80;;;;;;;;;;5020342;28;20048;-72
2023/04/30 01:10:43;;;;;;;36.88;20.38;;;;;;;;;;5025308;28;20029;-73
2023/04/30 01:13:16;;;;;;;31.27;19.63;;;;;;;;;;5024709;28;20045;-73
2023/04/30 01:15:53;;;;;;;36.25;19.88;;;;;;;;;;5055425;28;20036;-72
2023/04/30 01:18:24;;;;;;;35.90;19.73;;;;;;;;;;5043480;28;20487;-73
2023/04/30 01:20:55;;;;;;;35.43;20.63;;;;;;;;;;5027297;28;20041;-74
2023/04/30 01:23:46;;;;;;;32.25;19.85;;;;;;;;;;5062114;28;20041;-72
2023/04/30 01:26:20;;;;;;;35.33;18.77;;;;;;;;;;5062046;28;20064;-73
2023/04/30 01:28:52;;;;;;;39.72;19.75;;;;;;;;;;5027767;28;20087;-74
2023/04/30 01:31:17;;;;;;;38.65;19.33;;;;;;;;;;5059391;28;20470;-72
2023/04/30 01:33:45;;;;;;;34.60;18.98;;;;;;;;;;5028172;28;20130;-73
2023/04/30 01:36:16;;;;;;;28.17;17.73;;;;;;;;;;5030553;28;20042;-73
2023/04/30 01:38:53;;;;;;;32.05;20.25;;;;;;;;;;5024571;28;20390;-73
2023/04/30 01:41:24;;;;;;;38.50;21.15;;;;;;;;;;5029469;28;20037;-74
2023/04/30 01:44:07;;;;;;;35.95;21.27;;;;;;;;;;5026235;28;20033;-72
2023/04/30 01:46:33;;;;;;;39.13;20.42;;;;;;;;;;5025332;28;20112;-72
2023/04/30 01:48:58;;;;;;;36.83;20.60;;;;;;;;;;5031209;28;20120;-73
2023/04/30 01:51:28;;;;;;;33.15;19.60;;;;;;;;;;5065159;28;20046;-72
2023/04/30 01:54:02;;;;;;;34.15;19.63;;;;;;;;;;5033111;28;20045;-72
2023/04/30 01:56:30;;;;;;;34.60;17.85;;;;;;;;;;5036049;28;20112;-73
2023/04/30 01:58:59;;;;;;;30.70;17.73;;;;;;;;;;5031601;28;20029;-72
2023/04/30 02:01:28;;;;;;;30.45;17.10;;;;;;;;;;5030685;28;20039;-72
2023/04/30 02:03:53;;;;;;;31.63;17.40;;;;;;;;;;5063568;28;20052;-73
2023/04/30 02:06:19;;;;;;;30.40;16.23;;;;;;;;;;5031081;28;20494;-73
2023/04/30 02:08:44;;;;;;;32.28;16.83;;;;;;;;;;5030051;28;20482;-73
2023/04/30 02:11:10;;;;;;;31.75;16.45;;;;;;;;;;5029638;28;20030;-73
2023/04/30 02:13:35;;;;;;;29.23;16.75;;;;;;;;;;5030854;28;20041;-73
2023/04/30 02:16:00;;;;;;;27.38;15.90;;;;;;;;;;5028597;28;20070;-73
2023/04/30 02:18:25;;;;;;;29.77;15.75;;;;;;;;;;5026320;28;20057;-73
2023/04/30 02:20:51;;;;;;;27.38;14.55;;;;;;;;;;5032249;28;20525;-72
2023/04/30 02:23:18;;;;;;;26.80;13.85;;;;;;;;;;5063766;28;20366;-72
2023/04/30 02:25:43;;;;;;;33.03;13.93;;;;;;;;;;5031940;28;20087;-73
2023/04/30 02:28:09;;;;;;;23.17;13.73;;;;;;;;;;5064221;28;20437;-73
2023/04/30 02:30:34;;;;;;;24.55;13.40;;;;;;;;;;5027638;28;20382;-71
2023/04/30 02:32:59;;;;;;;25.55;13.73;;;;;;;;;;5030994;28;20103;-74
2023/04/30 02:35:25;;;;;;;25.00;13.15;;;;;;;;;;5028877;28;20054;-74
2023/04/30 02:37:50;;;;;;;24.77;13.88;;;;;;;;;;5030031;28;20041;-74
2023/04/30 02:40:15;;;;;;;21.80;12.45;;;;;;;;;;5067418;28;20172;-74
2023/04/30 02:42:40;;;;;;;27.15;13.63;;;;;;;;;;5030834;28;20033;-74
2023/04/30 02:45:06;;;;;;;22.63;12.57;;;;;;;;;;5032776;28;20048;-74
2023/04/30 02:47:34;;;;;;;20.25;12.57;;;;;;;;;;5064802;28;20045;-72
2023/04/30 02:50:01;;;;;;;23.73;13.35;;;;;;;;;;5070270;28;20041;-73
2023/04/30 02:52:27;;;;;;;20.05;13.20;;;;;;;;;;5035849;28;20044;-73
2023/04/30 02:54:52;;;;;;;24.70;13.55;;;;;;;;;;5064388;28;20033;-73
2023/04/30 02:57:17;;;;;;;19.88;13.75;;;;;;;;;;5065556;28;20040;-72
2023/04/30 02:59:45;;;;;;;21.48;13.98;;;;;;;;;;5033764;28;20047;-72
2023/04/30 03:02:11;;;;;;;24.52;15.00;;;;;;;;;;5058937;28;20046;-74
2023/04/30 03:04:36;;;;;;;24.60;15.00;;;;;;;;;;5034325;28;20045;-72
2023/04/30 03:07:05;;;;;;;28.33;15.00;;;;;;;;;;5030600;28;20056;-73
2023/04/30 03:09:33;;;;;;;24.25;14.95;;;;;;;;;;5060275;28;20044;-74
2023/04/30 03:11:58;;;;;;;24.52;14.07;;;;;;;;;;5035921;28;20049;-72
2023/04/30 03:14:26;;;;;;;25.95;14.40;;;;;;;;;;5061341;28;20036;-72
2023/04/30 03:16:51;;;;;;;24.90;14.15;;;;;;;;;;5062741;28;20086;-72
2023/04/30 03:19:20;;;;;;;27.05;15.35;;;;;;;;;;5029239;28;20033;-73
2023/04/30 03:21:48;;;;;;;28.52;16.42;;;;;;;;;;5034090;28;20439;-72
2023/04/30 03:24:15;;;;;;;28.15;16.38;;;;;;;;;;5060876;28;20627;-73
2023/04/30 03:26:43;;;;;;;27.30;16.40;;;;;;;;;;5032527;28;20465;-74
2023/04/30 03:29:08;;;;;;;28.05;16.70;;;;;;;;;;5031756;28;20040;-74
2023/04/30 03:31:36;;;;;;;29.02;17.95;;;;;;;;;;5028956;28;20033;-73
2023/04/30 03:34:01;;;;;;;31.27;18.20;;;;;;;;;;5031978;28;20120;-73
2023/04/30 03:36:30;;;;;;;25.92;16.65;;;;;;;;;;5033682;28;20112;-73
2023/04/30 03:38:55;;;;;;;27.13;17.35;;;;;;;;;;5029834;28;20034;-72
2023/04/30 03:41:22;;;;;;;34.67;19.88;;;;;;;;;;5031077;28;20482;-73
2023/04/30 03:43:47;;;;;;;33.65;19.17;;;;;;;;;;5061549;28;20037;-73
2023/04/30 03:46:12;;;;;;;34.33;19.73;;;;;;;;;;5028600;28;20057;-73
2023/04/30 03:48:37;;;;;;;42.90;22.45;;;;;;;;;;5060810;28;20406;-72
2023/04/30 03:51:03;;;;;;;39.28;22.63;;;;;;;;;;5036948;28;20021;-73
2023/04/30 03:53:28;;;;;;;40.83;22.73;;;;;;;;;;5035075;28;20041;-72
2023/04/30 03:55:53;;;;;;;44.67;23.35;;;;;;;;;;5032260;28;20030;-74
2023/04/30 03:58:20;;;;;;;39.38;23.10;;;;;;;;;;5061392;28;20544;-72
2023/04/30 04:00:46;;;;;;;44.63;23.83;;;;;;;;;;5033076;28;20087;-73
2023/04/30 04:03:12;;;;;;;43.08;24.95;;;;;;;;;;5033943;28;20033;-72
2023/04/30 04:05:38;;;;;;;50.42;24.45;;;;;;;;;;5039423;28;20446;-73
2023/04/30 04:08:03;;;;;;;51.25;25.52;;;;;;;;;;5031830;28;20514;-72
2023/04/30 04:10:28;;;;;;;39.08;23.17;;;;;;;;;;5035900;28;20459;-74
2023/04/30 04:12:56;;;;;;;46.40;26.50;;;;;;;;;;5031585;28;20539;-73
2023/04/30 04:15:21;;;;;;;48.25;25.50;;;;;;;;;;5035014;28;20041;-72
2023/04/30 04:17:47;;;;;;;48.60;26.95;;;;;;;;;;5063299;28;20041;-72
2023/04/30 04:20:12;;;;;;;47.95;26.10;;;;;;;;;;5062779;28;20041;-73
2023/04/30 04:22:38;;;;;;;47.20;27.60;;;;;;;;;;5032928;28;20025;-72
2023/04/30 04:25:03;;;;;;;52.08;29.67;;;;;;;;;;5037210;28;20473;-72
2023/04/30 04:27:28;;;;;;;53.85;28.08;;;;;;;;;;5037838;28;20036;-73
2023/04/30 04:29:54;;;;;;;50.92;28.50;;;;;;;;;;5033670;28;20040;-72
2023/04/30 04:32:19;;;;;;;52.30;29.85;;;;;;;;;;5043860;28;20124;-72
2023/04/30 04:34:48;;;;;;;52.50;30.42;;;;;;;;;;5030105;28;20033;-74
2023/04/30 04:37:16;;;;;;;60.53;33.78;;;;;;;;;;5066615;28;20040;-73
2023/04/30 04:39:43;;;;;;;58.25;31.65;;;;;;;;;;5035933;28;20507;-71
2023/04/30 04:42:09;;;;;;;58.85;32.47;;;;;;;;;;5038649;28;20474;-73
2023/04/30 04:44:35;;;;;;;52.45;29.00;;;;;;;;;;5027426;28;20032;-71
2023/04/30 04:47:02;;;;;;;55.30;29.63;;;;;;;;;;5030993;28;20128;-73
2023/04/30 04:49:32;;;;;;;48.80;27.17;;;;;;;;;;5027499;28;20029;-73
2023/04/30 04:51:57;;;;;;;54.40;28.77;;;;;;;;;;5029484;28;20025;-71
2023/04/30 04:54:22;;;;;;;52.80;26.65;;;;;;;;;;5040109;28;20024;-72
2023/04/30 04:56:50;;;;;;;53.05;24.83;;;;;;;;;;5064583;28;20033;-72
2023/04/30 04:59:17;;;;;;;39.78;22.48;;;;;;;;;;5034515;28;20079;-73
2023/04/30 05:01:44;;;;;;;42.75;22.80;;;;;;;;;;5061679;28;20037;-72
2023/04/30 05:04:09;;;;;;;41.10;22.13;;;;;;;;;;5030733;28;20389;-70
2023/04/30 05:06:39;;;;;;;42.67;23.92;;;;;;;;;;5035971;28;20044;-72
2023/04/30 05:09:07;;;;;;;44.67;24.02;;;;;;;;;;5029390;28;20135;-74
2023/04/30 05:11:33;;;;;;;39.75;22.13;;;;;;;;;;5032085;28;20631;-71
2023/04/30 05:13:58;;;;;;;48.22;24.00;;;;;;;;;;5064496;28;20045;-73
2023/04/30 05:16:23;;;;;;;47.53;24.65;;;;;;;;;;5075349;28;20030;-71
2023/04/30 05:18:48;;;;;;;47.75;24.40;;;;;;;;;;5012020;28;20045;-76
2023/04/30 05:21:14;;;;;;;32.90;17.45;;;;;;;;;;5007887;28;20053;-77
2023/04/30 05:23:39;;;;;;;24.17;14.40;;;;;;;;;;5037925;28;20045;-73
2023/04/30 05:26:07;;;;;;;21.55;13.23;;;;;;;;;;5036930;28;20039;-78
2023/04/30 05:28:32;;;;;;;23.02;13.48;;;;;;;;;;5038879;28;20128;-78
2023/04/30 05:30:58;;;;;;;22.52;13.75;;;;;;;;;;5022464;28;20037;-78
2023/04/30 05:33:23;;;;;;;25.40;14.68;;;;;;;;;;5037295;28;20459;-77
2023/04/30 05:35:48;;;;;;;24.52;13.65;;;;;;;;;;5006783;28;20061;-78
2023/04/30 05:38:13;;;;;;;21.05;12.23;;;;;;;;;;5003546;28;20073;-77
2023/04/30 05:40:39;;;;;;;22.08;12.70;;;;;;;;;;5003258;28;20034;-77
2023/04/30 05:43:04;;;;;;;24.38;13.38;;;;;;;;;;5031298;28;20179;-75
2023/04/30 05:45:30;;;;;;;24.92;13.02;;;;;;;;;;5037318;28;20390;-78
2023/04/30 05:47:55;;;;;;;18.98;13.43;;;;;;;;;;5001886;28;20116;-74
2023/04/30 05:50:21;;;;;;;21.70;12.93;;;;;;;;;;5000219;28;20052;-78
2023/04/30 05:52:46;;;;;;;20.92;12.93;;;;;;;;;;4999381;28;20069;-72
2023/04/30 05:55:11;;;;;;;21.10;13.48;;;;;;;;;;5002468;28;20042;-73
2023/04/30 05:57:37;;;;;;;20.27;12.65;;;;;;;;;;5006196;28;20205;-75
2023/04/30 06:00:11;;;;;;;17.67;12.40;;;;;;;;;;5004329;28;20037;-75
2023/04/30 06:02:36;;;;;;;;;;;;;;;;;;5038983;28;20048;-77
2023/04/30 06:05:02;;;;;;;20.22;12.82;;;;;;;;;;5007302;28;19921;-76
2023/04/30 06:07:27;;;;;;;20.35;12.98;;;;;;;;;;5005575;28;20045;-75
2023/04/30 06:09:52;;;;;;;21.00;12.95;;;;;;;;;;5007505;28;20463;-75
2023/04/30 06:12:20;;;;;;;18.13;12.70;;;;;;;;;;5034423;28;20497;-76
2023/04/30 06:14:45;;;;;;;20.08;12.73;;;;;;;;;;5005515;28;20045;-77
2023/04/30 06:17:14;;;;;;;16.17;11.85;;;;;;;;;;5008670;28;20160;-78
2023/04/30 06:19:40;;;;;;;18.17;12.35;;;;;;;;;;5007339;28;20506;-76
2023/04/30 06:22:07;;;;;;;18.17;12.52;;;;;;;;;;5018314;28;20446;-75
2023/04/30 06:24:32;;;;;;;19.17;12.70;;;;;;;;;;4989867;28;20050;-76
2023/04/30 06:27:00;;;;;;;18.15;12.30;;;;;;;;;;4999701;28;20110;-75
2023/04/30 06:29:27;;;;;;;18.92;12.70;;;;;;;;;;4988118;28;20092;-77
2023/04/30 06:31:53;;;;;;;16.60;11.70;;;;;;;;;;4989586;28;20030;-75
2023/04/30 06:34:21;;;;;;;16.13;11.73;;;;;;;;;;4989615;28;20415;-72
2023/04/30 06:36:46;;;;;;;17.90;11.82;;;;;;;;;;5010387;28;20621;-77
2023/04/30 06:39:15;;;;;;;15.40;11.77;;;;;;;;;;5015323;28;20029;-75
2023/04/30 06:41:41;;;;;;;14.90;10.77;;;;;;;;;;5009537;28;20088;-77
2023/04/30 06:44:09;;;;;;;13.43;10.13;;;;;;;;;;5021924;28;20033;-76
2023/04/30 06:46:34;;;;;;;13.95;10.05;;;;;;;;;;5009188;28;20513;-69
2023/04/30 06:49:00;;;;;;;13.30;10.23;;;;;;;;;;5007077;28;20029;-69
2023/04/30 06:51:25;;;;;;;13.68;9.45;;;;;;;;;;5041164;28;20100;-68
2023/04/30 06:53:51;;;;;;;11.13;9.15;;;;;;;;;;5009013;28;20565;-68
2023/04/30 06:56:16;;;;;;;12.43;9.40;;;;;;;;;;5008964;28;20041;-68
2023/04/30 06:58:41;;;;;;;11.02;8.73;;;;;;;;;;5013502;28;20033;-68
2023/04/30 07:01:07;;;;;;;10.63;7.85;;;;;;;;;;5042147;28;20613;-69
2023/04/30 07:03:32;;;;;;;10.82;8.27;;;;;;;;;;5008351;28;20160;-68
2023/04/30 07:06:00;;;;;;;11.20;8.10;;;;;;;;;;5007782;28;20418;-69
2023/04/30 07:08:25;;;;;;;10.98;8.70;;;;;;;;;;5007729;28;20061;-68
2023/04/30 07:10:50;;;;;;;10.65;7.88;;;;;;;;;;5041539;28;20041;-70
2023/04/30 07:13:16;;;;;;;12.80;8.63;;;;;;;;;;5039517;28;20041;-70
2023/04/30 07:15:42;;;;;;;10.43;7.47;;;;;;;;;;5011217;28;20041;-70
2023/04/30 07:18:08;;;;;;;12.48;7.75;;;;;;;;;;5011864;28;20030;-70
2023/04/30 07:20:34;;;;;;;9.45;7.50;;;;;;;;;;5008919;28;20075;-68
2023/04/30 07:22:59;;;;;;;15.32;8.88;;;;;;;;;;5014459;28;20175;-68
2023/04/30 07:25:24;;;;;;;12.00;8.35;;;;;;;;;;5008833;28;20090;-69
2023/04/30 07:27:50;;;;;;;10.43;8.38;;;;;;;;;;5010932;28;20045;-70
2023/04/30 07:30:16;;;;;;;12.07;8.55;;;;;;;;;;5003013;28;20041;-70
2023/04/30 07:32:42;;;;;;;11.02;8.40;;;;;;;;;;5004851;28;20049;-69
2023/04/30 07:35:08;;;;;;;10.73;8.00;;;;;;;;;;5017056;28;20066;-68
2023/04/30 07:37:33;;;;;;;10.93;7.95;;;;;;;;;;5006554;28;20394;-68
2023/04/30 07:39:58;;;;;;;12.95;8.73;;;;;;;;;;5036741;28;20037;-70
2023/04/30 07:42:23;;;;;;;11.38;8.48;;;;;;;;;;5007132;28;20660;-69
2023/04/30 07:44:49;;;;;;;12.23;8.50;;;;;;;;;;5016629;28;20128;-69
2023/04/30 07:47:14;;;;;;;10.13;7.90;;;;;;;;;;5021127;28;20032;-69
2023/04/30 07:49:40;;;;;;;9.75;7.07;;;;;;;;;;5005315;28;20435;-69
2023/04/30 07:52:07;;;;;;;7.93;5.78;;;;;;;;;;5005795;28;20227;-69
2023/04/30 07:54:35;;;;;;;10.15;7.43;;;;;;;;;;5004069;28;20415;-69
2023/04/30 07:57:00;;;;;;;10.63;7.82;;;;;;;;;;5004358;28;20040;-69
2023/04/30 07:59:26;;;;;;;11.15;8.32;;;;;;;;;;5002901;28;20033;-70
2023/04/30 08:01:51;;;;;;;12.82;7.90;;;;;;;;;;5036024;28;20039;-69
2023/04/30 08:04:16;;;;;;;11.32;7.88;;;;;;;;;;5001724;28;20048;-70
2023/04/30 08:06:41;;;;;;;30.80;13.60;;;;;;;;;;5001759;28;20190;-70
2023/04/30 08:09:07;;;;;;;18.27;10.98;;;;;;;;;;5000112;28;20529;-68
2023/04/30 08:11:32;;;;;;;10.05;7.88;;;;;;;;;;4996461;28;20071;-69
2023/04/30 08:13:59;;;;;;;9.38;7.25;;;;;;;;;;5026932;28;20803;-67
2023/04/30 08:16:24;;;;;;;8.30;5.68;;;;;;;;;;5001545;28;20041;-69
2023/04/30 08:18:50;;;;;;;14.10;7.38;;;;;;;;;;5034121;28;20044;-69
2023/04/30 08:21:18;;;;;;;8.82;6.38;;;;;;;;;;5007449;28;20129;-70
2023/04/30 08:23:43;;;;;;;10.50;6.25;;;;;;;;;;5005149;28;21772;-70
2023/04/30 08:26:11;;;;;;;9.90;6.45;;;;;;;;;;5004265;28;20047;-69
2023/04/30 08:28:36;;;;;;;12.70;6.68;;;;;;;;;;5005818;28;20033;-67
2023/04/30 08:31:02;;;;;;;8.90;5.95;;;;;;;;;;5036505;28;20060;-69
2023/04/30 08:33:27;;;;;;;6.97;5.95;;;;;;;;;;5005508;28;20044;-69
2023/04/30 08:35:55;;;;;;;7.03;5.07;;;;;;;;;;5003620;28;20033;-68
2023/04/30 08:38:20;;;;;;;7.90;5.28;;;;;;;;;;5038449;28;20044;-69
2023/04/30 08:40:55;;;;;;;6.55;5.30;;;;;;;;;;5020219;28;20036;-69
2023/04/30 08:43:23;;;;;;;6.50;5.13;;;;;;;;;;5007270;28;20149;-69
2023/04/30 08:45:49;;;;;;;7.20;4.85;;;;;;;;;;5033674;28;20170;-72
2023/04/30 08:48:15;;;;;;;7.05;5.05;;;;;;;;;;5017810;28;20064;-68
2023/04/30 08:50:41;;;;;;;9.10;5.30;;;;;;;;;;4995347;28;20107;-70
2023/04/30 08:53:09;;;;;;;6.80;4.60;;;;;;;;;;5001714;28;20073;-70
2023/04/30 08:55:38;;;;;;;8.60;4.80;;;;;;;;;;5003042;28;20029;-69
2023/04/30 08:58:04;;;;;;;7.10;4.63;;;;;;;;;;5037554;28;20211;-70
2023/04/30 09:00:31;;;;;;;5.05;4.22;;;;;;;;;;5005909;28;20628;-70
2023/04/30 09:02:56;;;;;;;5.22;4.43;;;;;;;;;;4998046;28;20647;-68
2023/04/30 09:05:21;;;;;;;7.95;4.30;;;;;;;;;;5004194;28;20434;-69
2023/04/30 09:07:47;;;;;;;6.45;4.47;;;;;;;;;;5018989;28;20061;-69
2023/04/30 09:10:19;;;;;;;8.23;4.38;;;;;;;;;;5002895;28;20032;-69
2023/04/30 09:13:02;;;;;;;6.60;4.55;;;;;;;;;;5002122;28;20059;-70
2023/04/30 09:15:27;;;;;;;5.88;4.30;;;;;;;;;;5005691;28;22064;-69
2023/04/30 09:18:13;;;;;;;7.60;4.85;;;;;;;;;;5000627;28;20029;-70
2023/04/30 09:20:52;;;;;;;5.55;4.63;;;;;;;;;;5010493;28;20033;-69
2023/04/30 09:23:20;;;;;;;7.78;4.63;;;;;;;;;;5026295;28;20034;-68
2023/04/30 09:25:46;;;;;;;6.53;4.15;;;;;;;;;;4982449;28;20042;-70
2023/04/30 09:28:12;;;;;;;6.68;4.38;;;;;;;;;;4980078;28;20034;-68
2023/04/30 09:30:38;;;;;;;6.93;4.40;;;;;;;;;;4985963;28;20045;-69
2023/04/30 09:33:03;;;;;;;8.50;4.25;;;;;;;;;;4986035;28;20186;-69
2023/04/30 09:35:29;;;;;;;8.35;4.63;;;;;;;;;;4985790;28;20037;-68
2023/04/30 09:37:55;;;;;;;5.60;3.83;;;;;;;;;;5016955;28;20468;-69
2023/04/30 09:40:31;;;;;;;5.28;3.80;;;;;;;;;;5018588;28;20053;-68
2023/04/30 09:42:57;;;;;;;6.05;3.58;;;;;;;;;;4986898;28;20072;-69
2023/04/30 09:45:24;;;;;;;5.47;3.65;;;;;;;;;;4986977;28;20569;-69
2023/04/30 09:47:51;;;;;;;4.90;3.60;;;;;;;;;;4985980;28;20060;-70
2023/04/30 09:50:17;;;;;;;5.40;3.35;;;;;;;;;;4985380;28;20394;-68
2023/04/30 09:52:47;;;;;;;4.25;3.10;;;;;;;;;;5018465;28;20054;-70
2023/04/30 09:55:12;;;;;;;5.78;3.13;;;;;;;;;;4988247;28;20041;-69
2023/04/30 09:57:38;;;;;;;4.50;3.30;;;;;;;;;;5019662;28;20045;-70
2023/04/30 10:00:03;;;;;;;5.47;3.80;;;;;;;;;;4984865;28;20110;-70
2023/04/30 10:02:29;;;;;;;5.22;3.83;;;;;;;;;;4989348;28;20092;-70
2023/04/30 10:04:55;;;;;;;5.88;4.18;;;;;;;;;;5020884;28;20038;-69
2023/04/30 10:07:23;;;;;;;6.13;3.97;;;;;;;;;;4991506;28;20046;-71
2023/04/30 10:09:49;;;;;;;5.82;3.85;;;;;;;;;;4985744;28;20049;-70
2023/04/30 10:12:18;;;;;;;4.25;3.33;;;;;;;;;;4989908;28;20116;-70
2023/04/30 10:14:49;;;;;;;5.18;3.80;;;;;;;;;;4990944;28;20038;-70
2023/04/30 10:17:19;;;;;;;7.28;3.67;;;;;;;;;;4989650;28;20038;-70
2023/04/30 10:19:45;;;;;;;4.85;3.58;;;;;;;;;;4985987;28;20030;-70
2023/04/30 10:22:11;;;;;;;5.32;3.05;;;;;;;;;;4988977;28;20101;-69
2023/04/30 10:24:36;;;;;;;5.07;3.58;;;;;;;;;;4984952;28;20125;-72
2023/04/30 10:27:02;;;;;;;7.30;4.03;;;;;;;;;;4985137;28;20033;-70
2023/04/30 10:29:29;;;;;;;7.28;4.07;;;;;;;;;;4987821;28;20056;-69
2023/04/30 10:31:55;;;;;;;6.18;3.92;;;;;;;;;;5002963;28;20608;-68
2023/04/30 10:34:20;;;;;;;6.30;3.67;;;;;;;;;;4995977;28;20060;-70
2023/04/30 10:36:47;;;;;;;5.22;3.15;;;;;;;;;;5007501;28;20895;-70
2023/04/30 10:39:18;;;;;;;5.53;4.05;;;;;;;;;;4998190;28;20072;-69
2023/04/30 10:41:45;;;;;;;4.95;3.40;;;;;;;;;;4993220;28;20149;-70
2023/04/30 10:44:10;;;;;;;4.07;3.40;;;;;;;;;;4990076;28;21365;-71
2023/04/30 10:46:40;;;;;;;5.55;3.80;;;;;;;;;;4987347;28;20092;-74
2023/04/30 10:49:08;;;;;;;5.00;3.85;;;;;;;;;;5013780;28;20037;-72
2023/04/30 10:51:55;;;;;;;7.10;3.47;;;;;;;;;;4986125;28;20113;-73
2023/04/30 10:54:26;;;;;;;5.38;3.75;;;;;;;;;;5017690;28;20042;-70
2023/04/30 10:56:51;;;;;;;4.55;3.17;;;;;;;;;;4986272;28;20041;-72
2023/04/30 10:59:17;;;;;;;5.95;3.28;;;;;;;;;;5007542;28;20069;-72
2023/04/30 11:01:59;;;;;;;9.30;3.65;;;;;;;;;;4985285;28;20044;-72
2023/04/30 11:04:25;;;;;;;4.28;3.03;;;;;;;;;;4986985;28;20046;-70
2023/04/30 11:06:53;;;;;;;6.38;3.88;;;;;;;;;;4984601;28;20034;-69
2023/04/30 11:09:19;;;;;;;5.85;3.80;;;;;;;;;;5019249;28;20041;-71
2023/04/30 11:11:46;;;;;;;6.75;3.75;;;;;;;;;;4985329;28;20092;-71
2023/04/30 11:14:11;;;;;;;6.57;4.07;;;;;;;;;;4985365;28;20745;-69
2023/04/30 11:16:37;;;;;;;5.22;3.70;;;;;;;;;;4988497;28;20082;-70
2023/04/30 11:19:06;;;;;;;5.43;3.45;;;;;;;;;;4988395;28;20049;-70
2023/04/30 11:21:32;;;;;;;5.20;3.50;;;;;;;;;;4987193;28;20038;-69
2023/04/30 11:24:02;;;;;;;5.63;3.50;;;;;;;;;;4976748;28;20042;-72
2023/04/30 11:26:27;;;;;;;5.45;3.78;;;;;;;;;;4977240;28;20041;-72
2023/04/30 11:28:54;;;;;;;5.40;3.58;;;;;;;;;;4988425;28;20046;-69
2023/04/30 11:31:19;;;;;;;6.32;3.80;;;;;;;;;;4987650;28;20045;-68
2023/04/30 11:33:45;;;;;;;6.10;3.42;;;;;;;;;;4987126;28;20046;-71
2023/04/30 11:36:16;;;;;;;5.72;3.22;;;;;;;;;;4982460;28;20037;-71
2023/04/30 11:38:44;;;;;;;6.30;3.72;;;;;;;;;;4983795;28;20300;-70
2023/04/30 11:41:12;;;;;;;7.32;3.60;;;;;;;;;;4985129;28;20037;-70
2023/04/30 11:43:37;;;;;;;4.35;3.58;;;;;;;;;;5031476;28;20033;-70
2023/04/30 11:46:07;;;;;;;5.43;3.72;;;;;;;;;;5037621;28;20041;-70
2023/04/30 11:48:33;;;;;;;5.60;4.00;;;;;;;;;;5005823;28;20045;-70
2023/04/30 11:51:01;;;;;;;5.22;3.30;;;;;;;;;;5002940;28;20079;-72
2023/04/30 11:53:28;;;;;;;6.00;3.50;;;;;;;;;;5002754;28;20045;-71
2023/04/30 11:55:54;;;;;;;6.00;3.70;;;;;;;;;;5011132;28;20735;-72
2023/04/30 11:58:20;;;;;;;5.00;3.67;;;;;;;;;;5013444;28;20040;-71
2023/04/30 12:00:46;;;;;;;6.93;3.65;;;;;;;;;;5008071;28;20037;-70
2023/04/30 12:03:16;;;;;;;6.70;3.58;;;;;;;;;;5003227;28;20103;-71
2023/04/30 12:05:41;;;;;;;8.25;4.00;;;;;;;;;;5008375;28;20118;-68
2023/04/30 12:08:08;;;;;;;7.10;3.88;;;;;;;;;;5003134;28;20037;-71
2023/04/30 12:10:35;;;;;;;6.78;3.75;;;;;;;;;;5001650;28;20783;-68
2023/04/30 12:13:01;;;;;;;6.13;3.72;;;;;;;;;;5003967;28;20052;-73
2023/04/30 12:15:26;;;;;;;6.47;3.88;;;;;;;;;;5036552;28;20041;-71
2023/04/30 12:17:55;;;;;;;6.15;3.45;;;;;;;;;;5011930;28;20290;-70
2023/04/30 12:20:21;;;;;;;6.55;3.33;;;;;;;;;;5010619;28;20029;-71
2023/04/30 12:22:47;;;;;;;4.55;3.03;;;;;;;;;;5010661;28;23318;-70
2023/04/30 12:25:17;;;;;;;7.53;3.60;;;;;;;;;;5023154;28;20152;-70
2023/04/30 12:27:46;;;;;;;4.68;2.80;;;;;;;;;;5008875;28;20038;-71
2023/04/30 12:30:12;;;;;;;5.53;3.15;;;;;;;;;;5010186;28;20147;-69
2023/04/30 12:32:46;;;;;;;6.28;3.30;;;;;;;;;;5007169;28;20045;-71
2023/04/30 12:35:15;;;;;;;6.22;3.38;;;;;;;;;;5006526;28;20604;-71
2023/04/30 12:37:42;;;;;;;5.60;2.95;;;;;;;;;;5008990;28;20048;-69
2023/04/30 12:40:07;;;;;;;6.95;2.40;;;;;;;;;;5037763;28;20037;-71
2023/04/30 12:42:34;;;;;;;6.10;3.08;;;;;;;;;;5035142;28;20086;-71
2023/04/30 12:45:00;;;;;;;4.32;2.83;;;;;;;;;;5040084;28;20124;-72
2023/04/30 12:47:25;;;;;;;5.78;2.85;;;;;;;;;;5008084;28;20044;-71
2023/04/30 12:49:50;;;;;;;5.25;2.80;;;;;;;;;;5004863;28;20106;-72
2023/04/30 12:52:16;;;;;;;4.20;2.60;;;;;;;;;;5006330;28;20033;-71
2023/04/30 12:54:41;;;;;;;3.53;2.20;;;;;;;;;;5006194;28;20057;-67
2023/04/30 12:57:08;;;;;;;4.13;2.28;;;;;;;;;;5005536;28;20032;-70
2023/04/30 12:59:36;;;;;;;5.10;2.75;;;;;;;;;;5024107;28;20037;-71
2023/04/30 13:02:13;;;;;;;4.65;3.15;;;;;;;;;;5003801;28;20026;-71
2023/04/30 13:04:39;;;;;;;4.13;2.50;;;;;;;;;;5003578;28;20033;-72
2023/04/30 13:07:04;;;;;;;4.60;2.42;;;;;;;;;;5008388;28;20040;-71
2023/04/30 13:09:34;;;;;;;6.25;2.65;;;;;;;;;;5005846;28;20700;-70
2023/04/30 13:11:59;;;;;;;3.83;2.40;;;;;;;;;;5005247;28;20231;-73
2023/04/30 13:14:25;;;;;;;3.67;2.30;;;;;;;;;;5012184;28;20077;-73
2023/04/30 13:16:51;;;;;;;2.22;1.85;;;;;;;;;;5014189;28;21344;-72
2023/04/30 13:19:16;;;;;;;4.20;2.28;;;;;;;;;;5031258;28;20036;-71
2023/04/30 13:21:41;;;;;;;3.53;2.22;;;;;;;;;;5006976;28;21095;-71
2023/04/30 13:24:07;;;;;;;5.53;2.38;;;;;;;;;;5034637;28;20100;-71
2023/04/30 13:26:32;;;;;;;4.00;2.33;;;;;;;;;;5003818;28;20797;-74
2023/04/30 13:29:00;;;;;;;7.10;2.90;;;;;;;;;;5008242;28;20044;-73
2023/04/30 13:31:26;;;;;;;3.88;2.13;;;;;;;;;;5006850;28;20093;-75
2023/04/30 13:33:53;;;;;;;5.07;2.55;;;;;;;;;;5003436;28;20072;-74
2023/04/30 13:36:18;;;;;;;4.30;2.45;;;;;;;;;;5007094;28;20036;-73
2023/04/30 13:38:43;;;;;;;5.13;2.50;;;;;;;;;;5037850;28;20041;-72
2023/04/30 13:41:08;;;;;;;4.72;2.30;;;;;;;;;;5005415;28;20573;-71
2023/04/30 13:43:34;;;;;;;4.88;2.55;;;;;;;;;;5002585;28;20033;-72
2023/04/30 13:45:59;;;;;;;5.18;2.17;;;;;;;;;;5004070;28;20047;-72
2023/04/30 13:48:24;;;;;;;4.25;2.20;;;;;;;;;;5018710;28;20056;-72
2023/04/30 13:50:53;;;;;;;5.22;2.40;;;;;;;;;;4995196;28;20037;-72
2023/04/30 13:53:18;;;;;;;5.63;2.70;;;;;;;;;;4987945;28;20038;-71
2023/04/30 13:55:45;;;;;;;4.18;2.40;;;;;;;;;;4984283;28;20545;-71
2023/04/30 13:58:11;;;;;;;4.47;2.88;;;;;;;;;;4986986;28;20041;-72
2023/04/30 14:00:37;;;;;;;4.43;2.50;;;;;;;;;;4993526;28;22228;-73
2023/04/30 14:03:02;;;;;;;5.63;2.70;;;;;;;;;;5004779;28;20041;-71
2023/04/30 14:05:28;;;;;;;5.38;3.00;;;;;;;;;;5002224;28;20607;-69
2023/04/30 14:07:55;;;;;;;5.28;2.85;;;;;;;;;;5031482;28;20110;-70
2023/04/30 14:10:20;;;;;;;5.53;2.78;;;;;;;;;;5017296;28;20034;-72
2023/04/30 14:12:47;;;;;;;4.07;2.40;;;;;;;;;;5040709;28;20125;-72
2023/04/30 14:15:13;;;;;;;4.57;2.63;;;;;;;;;;5001825;28;20052;-71
2023/04/30 14:17:38;;;;;;;4.32;2.58;;;;;;;;;;5008622;28;20069;-73
2023/04/30 14:20:04;;;;;;;4.10;2.40;;;;;;;;;;5010600;28;20052;-71
2023/04/30 14:22:30;;;;;;;4.97;2.20;;;;;;;;;;5010780;28;20065;-72
2023/04/30 14:24:55;;;;;;;5.13;3.08;;;;;;;;;;5005614;28;20049;-71